Penrith, Australia
Current Conditions -  °F | °C
As of 6:00 AM on Wednesday 28 Jan 2015 (Local Time) from YSRI Reporting Station
Rain Showers Rain Showers  
Wind Chill: 63°   Ceiling: 4500
Heat Index: 63°   Visibility: 6mi
Dew Point: 61°   Wind: 7mph
Humidity: 94%   Direction: 210°SSW
Pressure: 29.85"   Gusts: NA
Location:  33.74°S, 150.7°E
Report Text: YSRI 271900Z AUTO 21006KT 9999 -SHRA SCT035 OVC045 17/16 Q1011
Loading
Personal Weather Stations






























Interactive Weather Map New forecast layout! Learn more

10-Day Weather Forecast

Advertisements
Track Severe Weather on mobile